sensor_id;sensor_type;location;lat;lon;timestamp;temperature;humidity
10263;DHT22;5177;50.068;8.156;2023-05-09T00:01:09;15.70;99.90
10263;DHT22;5177;50.068;8.156;2023-05-09T00:03:35;15.70;99.90
10263;DHT22;5177;50.068;8.156;2023-05-09T00:06:01;15.60;99.90
10263;DHT22;5177;50.068;8.156;2023-05-09T00:08:27;15.70;99.90
10263;DHT22;5177;50.068;8.156;2023-05-09T00:10:52;15.80;99.90
10263;DHT22;5177;50.068;8.156;2023-05-09T00:13:18;15.80;99.90
10263;DHT22;5177;50.068;8.156;2023-05-09T00:15:43;15.80;99.90
10263;DHT22;5177;50.068;8.156;2023-05-09T00:18:09;15.80;99.90
10263;DHT22;5177;50.068;8.156;2023-05-09T00:20:35;15.70;99.90
10263;DHT22;5177;50.068;8.156;2023-05-09T00:23:00;15.70;99.90
10263;DHT22;5177;50.068;8.156;2023-05-09T00:25:26;15.70;99.90
10263;DHT22;5177;50.068;8.156;2023-05-09T00:27:51;15.70;99.90
10263;DHT22;5177;50.068;8.156;2023-05-09T00:30:17;15.70;99.90
10263;DHT22;5177;50.068;8.156;2023-05-09T00:32:43;15.70;99.90
10263;DHT22;5177;50.068;8.156;2023-05-09T00:35:09;15.70;99.90
10263;DHT22;5177;50.068;8.156;2023-05-09T00:37:34;15.70;99.90
10263;DHT22;5177;50.068;8.156;2023-05-09T00:40:00;15.70;99.90
10263;DHT22;5177;50.068;8.156;2023-05-09T00:42:25;15.70;99.90
10263;DHT22;5177;50.068;8.156;2023-05-09T00:44:51;15.70;99.90
10263;DHT22;5177;50.068;8.156;2023-05-09T00:47:16;15.70;99.90
10263;DHT22;5177;50.068;8.156;2023-05-09T00:49:42;15.60;99.90
10263;DHT22;5177;50.068;8.156;2023-05-09T00:52:07;15.60;99.90
10263;DHT22;5177;50.068;8.156;2023-05-09T00:54:33;15.60;99.90
10263;DHT22;5177;50.068;8.156;2023-05-09T00:56:59;15.60;99.90
10263;DHT22;5177;50.068;8.156;2023-05-09T00:59:25;15.60;99.90
10263;DHT22;5177;50.068;8.156;2023-05-09T01:01:51;15.60;99.90
10263;DHT22;5177;50.068;8.156;2023-05-09T01:04:16;15.60;99.90
10263;DHT22;5177;50.068;8.156;2023-05-09T01:14:59;15.60;99.90
10263;DHT22;5177;50.068;8.156;2023-05-09T01:17:35;15.60;99.90
10263;DHT22;5177;50.068;8.156;2023-05-09T01:20:05;15.50;99.90
10263;DHT22;5177;50.068;8.156;2023-05-09T01:22:35;15.50;99.90
10263;DHT22;5177;50.068;8.156;2023-05-09T01:30:08;15.40;99.90
10263;DHT22;5177;50.068;8.156;2023-05-09T01:32:35;15.30;99.90
10263;DHT22;5177;50.068;8.156;2023-05-09T01:35:02;15.30;99.90
10263;DHT22;5177;50.068;8.156;2023-05-09T01:37:29;15.20;99.90
10263;DHT22;5177;50.068;8.156;2023-05-09T01:39:56;15.30;99.90
10263;DHT22;5177;50.068;8.156;2023-05-09T01:42:23;15.20;99.90
10263;DHT22;5177;50.068;8.156;2023-05-09T01:44:48;15.20;99.90
10263;DHT22;5177;50.068;8.156;2023-05-09T01:47:15;15.10;99.90
10263;DHT22;5177;50.068;8.156;2023-05-09T01:49:42;15.00;99.90
10263;DHT22;5177;50.068;8.156;2023-05-09T01:52:10;15.00;99.90
10263;DHT22;5177;50.068;8.156;2023-05-09T01:54:36;15.00;99.90
10263;DHT22;5177;50.068;8.156;2023-05-09T01:57:02;15.10;99.90
10263;DHT22;5177;50.068;8.156;2023-05-09T01:59:30;15.00;99.90
10263;DHT22;5177;50.068;8.156;2023-05-09T02:01:56;15.00;99.90
10263;DHT22;5177;50.068;8.156;2023-05-09T02:04:21;15.00;99.90
10263;DHT22;5177;50.068;8.156;2023-05-09T02:06:48;15.00;99.90
10263;DHT22;5177;50.068;8.156;2023-05-09T02:09:17;15.00;99.90
10263;DHT22;5177;50.068;8.156;2023-05-09T02:11:43;15.00;99.90
10263;DHT22;5177;50.068;8.156;2023-05-09T02:14:09;15.00;99.90
10263;DHT22;5177;50.068;8.156;2023-05-09T02:16:34;15.00;99.90
10263;DHT22;5177;50.068;8.156;2023-05-09T02:19:00;15.00;99.90
10263;DHT22;5177;50.068;8.156;2023-05-09T02:21:25;15.00;99.90
10263;DHT22;5177;50.068;8.156;2023-05-09T02:23:51;15.00;99.90
10263;DHT22;5177;50.068;8.156;2023-05-09T02:26:16;15.00;99.90
10263;DHT22;5177;50.068;8.156;2023-05-09T02:28:42;15.00;99.90
10263;DHT22;5177;50.068;8.156;2023-05-09T02:31:08;15.00;99.90
10263;DHT22;5177;50.068;8.156;2023-05-09T02:33:36;15.00;99.90
10263;DHT22;5177;50.068;8.156;2023-05-09T02:36:02;15.00;99.90
10263;DHT22;5177;50.068;8.156;2023-05-09T02:38:28;15.10;99.90
10263;DHT22;5177;50.068;8.156;2023-05-09T02:40:54;15.10;99.90
10263;DHT22;5177;50.068;8.156;2023-05-09T02:43:20;15.10;99.90
10263;DHT22;5177;50.068;8.156;2023-05-09T02:45:45;15.10;99.90
10263;DHT22;5177;50.068;8.156;2023-05-09T02:48:11;15.10;99.90
10263;DHT22;5177;50.068;8.156;2023-05-09T02:50:36;15.10;99.90
10263;DHT22;5177;50.068;8.156;2023-05-09T02:53:07;15.10;99.90
10263;DHT22;5177;50.068;8.156;2023-05-09T02:55:32;15.10;99.90
10263;DHT22;5177;50.068;8.156;2023-05-09T02:57:58;15.00;99.90
10263;DHT22;5177;50.068;8.156;2023-05-09T03:00:23;15.00;99.90
10263;DHT22;5177;50.068;8.156;2023-05-09T03:02:50;15.00;99.90
10263;DHT22;5177;50.068;8.156;2023-05-09T03:05:15;15.00;99.90
10263;DHT22;5177;50.068;8.156;2023-05-09T03:07:42;15.00;99.90
10263;DHT22;5177;50.068;8.156;2023-05-09T03:10:08;14.90;99.90
10263;DHT22;5177;50.068;8.156;2023-05-09T03:12:35;14.80;99.90
10263;DHT22;5177;50.068;8.156;2023-05-09T03:15:03;14.80;99.90
10263;DHT22;5177;50.068;8.156;2023-05-09T03:17:28;14.70;99.90
10263;DHT22;5177;50.068;8.156;2023-05-09T03:19:54;14.70;99.90
10263;DHT22;5177;50.068;8.156;2023-05-09T03:22:19;14.70;99.90
10263;DHT22;5177;50.068;8.156;2023-05-09T03:24:45;14.70;99.90
10263;DHT22;5177;50.068;8.156;2023-05-09T03:27:10;14.60;99.90
10263;DHT22;5177;50.068;8.156;2023-05-09T03:29:36;14.60;99.90
10263;DHT22;5177;50.068;8.156;2023-05-09T03:32:01;14.70;99.90
10263;DHT22;5177;50.068;8.156;2023-05-09T03:34:27;14.70;99.90
10263;DHT22;5177;50.068;8.156;2023-05-09T03:36:52;14.70;99.90
10263;DHT22;5177;50.068;8.156;2023-05-09T03:39:18;14.70;99.90
10263;DHT22;5177;50.068;8.156;2023-05-09T03:41:43;14.70;99.90
10263;DHT22;5177;50.068;8.156;2023-05-09T03:44:09;14.80;99.90
10263;DHT22;5177;50.068;8.156;2023-05-09T03:46:34;14.70;99.90
10263;DHT22;5177;50.068;8.156;2023-05-09T03:48:59;14.90;99.90
10263;DHT22;5177;50.068;8.156;2023-05-09T03:51:25;14.90;99.90
10263;DHT22;5177;50.068;8.156;2023-05-09T03:53:51;14.90;99.90
10263;DHT22;5177;50.068;8.156;2023-05-09T03:56:16;14.80;99.90
10263;DHT22;5177;50.068;8.156;2023-05-09T03:58:42;14.90;99.90
10263;DHT22;5177;50.068;8.156;2023-05-09T04:01:07;14.80;99.90
10263;DHT22;5177;50.068;8.156;2023-05-09T04:03:33;14.90;99.90
10263;DHT22;5177;50.068;8.156;2023-05-09T04:05:58;14.90;99.90
10263;DHT22;5177;50.068;8.156;2023-05-09T04:08:24;14.80;99.90
10263;DHT22;5177;50.068;8.156;2023-05-09T04:10:50;14.90;99.90
10263;DHT22;5177;50.068;8.156;2023-05-09T04:13:16;14.80;99.90
10263;DHT22;5177;50.068;8.156;2023-05-09T04:15:42;14.90;99.90
10263;DHT22;5177;50.068;8.156;2023-05-09T04:18:07;14.80;99.90
10263;DHT22;5177;50.068;8.156;2023-05-09T04:20:33;14.80;99.90
10263;DHT22;5177;50.068;8.156;2023-05-09T04:22:58;14.90;99.90
10263;DHT22;5177;50.068;8.156;2023-05-09T04:25:24;14.90;99.90
10263;DHT22;5177;50.068;8.156;2023-05-09T04:27:50;14.90;99.90
10263;DHT22;5177;50.068;8.156;2023-05-09T04:30:15;14.90;99.90
10263;DHT22;5177;50.068;8.156;2023-05-09T04:32:41;15.00;99.90
10263;DHT22;5177;50.068;8.156;2023-05-09T04:35:13;15.00;99.90
10263;DHT22;5177;50.068;8.156;2023-05-09T04:37:38;15.00;99.90
10263;DHT22;5177;50.068;8.156;2023-05-09T04:40:04;14.90;99.90
10263;DHT22;5177;50.068;8.156;2023-05-09T04:42:30;15.00;99.90
10263;DHT22;5177;50.068;8.156;2023-05-09T04:44:58;15.00;99.90
10263;DHT22;5177;50.068;8.156;2023-05-09T04:47:23;15.10;99.90
10263;DHT22;5177;50.068;8.156;2023-05-09T04:49:48;15.20;99.90
10263;DHT22;5177;50.068;8.156;2023-05-09T04:52:14;15.10;99.90
10263;DHT22;5177;50.068;8.156;2023-05-09T04:54:40;15.20;99.90
10263;DHT22;5177;50.068;8.156;2023-05-09T04:57:05;15.20;99.90
10263;DHT22;5177;50.068;8.156;2023-05-09T04:59:31;15.20;99.90
10263;DHT22;5177;50.068;8.156;2023-05-09T05:01:56;15.30;99.90
10263;DHT22;5177;50.068;8.156;2023-05-09T05:04:22;15.30;99.90
10263;DHT22;5177;50.068;8.156;2023-05-09T05:06:48;15.40;99.90
10263;DHT22;5177;50.068;8.156;2023-05-09T05:09:13;15.40;99.90
10263;DHT22;5177;50.068;8.156;2023-05-09T05:11:38;15.50;99.90
10263;DHT22;5177;50.068;8.156;2023-05-09T05:14:04;15.50;99.90
10263;DHT22;5177;50.068;8.156;2023-05-09T05:16:30;15.70;99.90
10263;DHT22;5177;50.068;8.156;2023-05-09T05:18:55;15.70;99.90
10263;DHT22;5177;50.068;8.156;2023-05-09T05:21:21;15.80;99.90
10263;DHT22;5177;50.068;8.156;2023-05-09T05:23:46;15.80;99.90
10263;DHT22;5177;50.068;8.156;2023-05-09T05:26:12;16.00;99.90
10263;DHT22;5177;50.068;8.156;2023-05-09T05:28:37;16.00;99.90
10263;DHT22;5177;50.068;8.156;2023-05-09T05:31:03;16.10;99.90
10263;DHT22;5177;50.068;8.156;2023-05-09T05:33:28;16.20;99.90
10263;DHT22;5177;50.068;8.156;2023-05-09T05:35:55;16.20;99.90
10263;DHT22;5177;50.068;8.156;2023-05-09T05:38:21;16.20;99.90
10263;DHT22;5177;50.068;8.156;2023-05-09T05:40:46;16.20;99.90
10263;DHT22;5177;50.068;8.156;2023-05-09T05:43:12;16.30;99.90
10263;DHT22;5177;50.068;8.156;2023-05-09T05:45:37;16.50;99.90
10263;DHT22;5177;50.068;8.156;2023-05-09T05:48:03;16.50;99.90
10263;DHT22;5177;50.068;8.156;2023-05-09T05:50:28;16.60;99.90
10263;DHT22;5177;50.068;8.156;2023-05-09T05:52:54;16.70;99.90
10263;DHT22;5177;50.068;8.156;2023-05-09T05:55:19;16.80;99.90
10263;DHT22;5177;50.068;8.156;2023-05-09T05:57:45;16.80;99.90
10263;DHT22;5177;50.068;8.156;2023-05-09T06:00:12;16.80;99.90
10263;DHT22;5177;50.068;8.156;2023-05-09T06:02:41;16.70;99.90
10263;DHT22;5177;50.068;8.156;2023-05-09T06:05:07;16.70;99.90
10263;DHT22;5177;50.068;8.156;2023-05-09T06:07:33;16.80;99.90
10263;DHT22;5177;50.068;8.156;2023-05-09T06:09:58;16.70;99.90
10263;DHT22;5177;50.068;8.156;2023-05-09T06:12:24;16.80;99.90
10263;DHT22;5177;50.068;8.156;2023-05-09T06:14:50;16.80;99.90
10263;DHT22;5177;50.068;8.156;2023-05-09T06:17:15;16.90;99.90
10263;DHT22;5177;50.068;8.156;2023-05-09T06:19:41;17.00;99.90
10263;DHT22;5177;50.068;8.156;2023-05-09T06:22:06;16.90;99.90
10263;DHT22;5177;50.068;8.156;2023-05-09T06:24:32;16.90;99.90
10263;DHT22;5177;50.068;8.156;2023-05-09T06:26:57;16.90;99.90
10263;DHT22;5177;50.068;8.156;2023-05-09T06:29:23;16.90;99.90
10263;DHT22;5177;50.068;8.156;2023-05-09T06:31:48;17.00;99.90
10263;DHT22;5177;50.068;8.156;2023-05-09T06:34:14;17.00;99.90
10263;DHT22;5177;50.068;8.156;2023-05-09T06:36:39;17.00;99.90
10263;DHT22;5177;50.068;8.156;2023-05-09T06:39:05;16.90;99.90
10263;DHT22;5177;50.068;8.156;2023-05-09T06:41:30;16.90;99.90
10263;DHT22;5177;50.068;8.156;2023-05-09T06:43:56;16.80;99.90
10263;DHT22;5177;50.068;8.156;2023-05-09T06:46:22;16.90;99.90
10263;DHT22;5177;50.068;8.156;2023-05-09T06:48:47;16.80;99.90
10263;DHT22;5177;50.068;8.156;2023-05-09T06:51:12;16.90;99.90
10263;DHT22;5177;50.068;8.156;2023-05-09T06:53:38;16.90;99.90
10263;DHT22;5177;50.068;8.156;2023-05-09T06:56:03;16.80;99.90
10263;DHT22;5177;50.068;8.156;2023-05-09T06:58:29;16.70;99.90
10263;DHT22;5177;50.068;8.156;2023-05-09T07:00:55;16.70;99.90
10263;DHT22;5177;50.068;8.156;2023-05-09T07:03:21;16.80;99.90
10263;DHT22;5177;50.068;8.156;2023-05-09T07:05:46;16.90;99.90
10263;DHT22;5177;50.068;8.156;2023-05-09T07:08:12;16.90;99.90
10263;DHT22;5177;50.068;8.156;2023-05-09T07:10:37;16.90;99.90
10263;DHT22;5177;50.068;8.156;2023-05-09T07:13:03;17.00;99.90
10263;DHT22;5177;50.068;8.156;2023-05-09T07:15:29;17.00;99.90
10263;DHT22;5177;50.068;8.156;2023-05-09T07:17:54;17.10;99.90
10263;DHT22;5177;50.068;8.156;2023-05-09T07:20:20;17.10;99.90
10263;DHT22;5177;50.068;8.156;2023-05-09T07:22:45;17.20;99.90
10263;DHT22;5177;50.068;8.156;2023-05-09T07:25:11;17.30;99.90
10263;DHT22;5177;50.068;8.156;2023-05-09T07:27:37;17.40;99.90
10263;DHT22;5177;50.068;8.156;2023-05-09T07:30:05;17.60;99.90
10263;DHT22;5177;50.068;8.156;2023-05-09T07:32:31;17.70;99.90
10263;DHT22;5177;50.068;8.156;2023-05-09T07:34:57;17.70;99.90
10263;DHT22;5177;50.068;8.156;2023-05-09T07:37:23;17.80;99.90
10263;DHT22;5177;50.068;8.156;2023-05-09T07:39:48;17.70;99.90
10263;DHT22;5177;50.068;8.156;2023-05-09T07:42:14;17.70;99.90
10263;DHT22;5177;50.068;8.156;2023-05-09T07:44:40;17.70;99.90
10263;DHT22;5177;50.068;8.156;2023-05-09T07:47:05;17.70;99.90
10263;DHT22;5177;50.068;8.156;2023-05-09T07:49:33;17.60;99.90
10263;DHT22;5177;50.068;8.156;2023-05-09T07:51:58;17.40;99.90
10263;DHT22;5177;50.068;8.156;2023-05-09T07:54:26;17.50;99.90
10263;DHT22;5177;50.068;8.156;2023-05-09T07:56:51;17.50;99.90
10263;DHT22;5177;50.068;8.156;2023-05-09T07:59:17;17.60;99.90
10263;DHT22;5177;50.068;8.156;2023-05-09T08:01:43;17.70;99.90
10263;DHT22;5177;50.068;8.156;2023-05-09T08:04:09;17.70;99.90
10263;DHT22;5177;50.068;8.156;2023-05-09T08:06:34;17.70;99.90
10263;DHT22;5177;50.068;8.156;2023-05-09T08:09:00;17.60;99.90
10263;DHT22;5177;50.068;8.156;2023-05-09T08:11:26;17.70;99.90
10263;DHT22;5177;50.068;8.156;2023-05-09T08:13:52;17.60;99.90
10263;DHT22;5177;50.068;8.156;2023-05-09T08:16:17;17.70;99.90
10263;DHT22;5177;50.068;8.156;2023-05-09T08:18:43;17.60;99.90
10263;DHT22;5177;50.068;8.156;2023-05-09T08:21:08;17.70;99.90
10263;DHT22;5177;50.068;8.156;2023-05-09T08:23:34;17.70;99.90
10263;DHT22;5177;50.068;8.156;2023-05-09T08:25:59;17.70;99.90
10263;DHT22;5177;50.068;8.156;2023-05-09T08:28:25;17.80;99.90
10263;DHT22;5177;50.068;8.156;2023-05-09T08:30:53;17.70;99.90
10263;DHT22;5177;50.068;8.156;2023-05-09T08:33:18;17.80;99.90
10263;DHT22;5177;50.068;8.156;2023-05-09T08:35:44;17.90;99.90
10263;DHT22;5177;50.068;8.156;2023-05-09T08:38:10;17.70;99.90
10263;DHT22;5177;50.068;8.156;2023-05-09T08:40:35;17.80;99.90
10263;DHT22;5177;50.068;8.156;2023-05-09T08:43:02;17.70;99.90
10263;DHT22;5177;50.068;8.156;2023-05-09T08:45:30;17.70;99.90
10263;DHT22;5177;50.068;8.156;2023-05-09T08:47:58;17.80;99.90
10263;DHT22;5177;50.068;8.156;2023-05-09T08:50:23;17.80;99.90
10263;DHT22;5177;50.068;8.156;2023-05-09T08:52:50;17.90;99.90
10263;DHT22;5177;50.068;8.156;2023-05-09T08:55:15;17.80;99.90
10263;DHT22;5177;50.068;8.156;2023-05-09T08:57:41;17.90;99.90
10263;DHT22;5177;50.068;8.156;2023-05-09T09:00:07;17.60;99.90
10263;DHT22;5177;50.068;8.156;2023-05-09T09:02:41;17.60;99.90
10263;DHT22;5177;50.068;8.156;2023-05-09T09:05:06;17.60;99.90
10263;DHT22;5177;50.068;8.156;2023-05-09T09:07:32;17.60;99.90
10263;DHT22;5177;50.068;8.156;2023-05-09T09:09:58;17.60;99.90
10263;DHT22;5177;50.068;8.156;2023-05-09T09:12:25;17.50;99.90
10263;DHT22;5177;50.068;8.156;2023-05-09T09:14:51;17.50;99.90
10263;DHT22;5177;50.068;8.156;2023-05-09T09:17:20;17.40;99.90
10263;DHT22;5177;50.068;8.156;2023-05-09T09:19:49;17.40;99.90
10263;DHT22;5177;50.068;8.156;2023-05-09T09:22:19;17.50;99.90
10263;DHT22;5177;50.068;8.156;2023-05-09T09:24:45;17.40;99.90
10263;DHT22;5177;50.068;8.156;2023-05-09T09:27:10;17.50;99.90
10263;DHT22;5177;50.068;8.156;2023-05-09T09:29:36;17.40;99.90
10263;DHT22;5177;50.068;8.156;2023-05-09T09:32:03;17.40;99.90
10263;DHT22;5177;50.068;8.156;2023-05-09T09:34:29;17.60;99.90
10263;DHT22;5177;50.068;8.156;2023-05-09T09:36:55;17.70;99.90
10263;DHT22;5177;50.068;8.156;2023-05-09T09:39:20;17.70;99.90
10263;DHT22;5177;50.068;8.156;2023-05-09T09:41:46;17.70;99.90
10263;DHT22;5177;50.068;8.156;2023-05-09T09:44:13;17.70;99.90
10263;DHT22;5177;50.068;8.156;2023-05-09T09:46:49;17.80;99.90
10263;DHT22;5177;50.068;8.156;2023-05-09T09:49:16;17.90;99.90
10263;DHT22;5177;50.068;8.156;2023-05-09T09:51:42;17.80;99.90
10263;DHT22;5177;50.068;8.156;2023-05-09T09:54:08;17.80;99.90
10263;DHT22;5177;50.068;8.156;2023-05-09T09:56:38;17.70;99.90
10263;DHT22;5177;50.068;8.156;2023-05-09T09:59:07;17.70;99.90
10263;DHT22;5177;50.068;8.156;2023-05-09T10:01:32;17.80;99.90
10263;DHT22;5177;50.068;8.156;2023-05-09T10:03:58;17.80;99.90
10263;DHT22;5177;50.068;8.156;2023-05-09T10:06:27;17.90;99.90
10263;DHT22;5177;50.068;8.156;2023-05-09T10:08:52;18.10;99.90
10263;DHT22;5177;50.068;8.156;2023-05-09T10:11:18;18.30;99.90
10263;DHT22;5177;50.068;8.156;2023-05-09T10:13:43;18.40;99.90
10263;DHT22;5177;50.068;8.156;2023-05-09T10:16:09;18.50;99.90
10263;DHT22;5177;50.068;8.156;2023-05-09T10:18:35;18.70;99.90
10263;DHT22;5177;50.068;8.156;2023-05-09T10:21:01;18.80;99.90
10263;DHT22;5177;50.068;8.156;2023-05-09T10:23:29;19.00;99.90
10263;DHT22;5177;50.068;8.156;2023-05-09T10:26:02;19.20;99.90
10263;DHT22;5177;50.068;8.156;2023-05-09T10:28:30;19.20;99.90
10263;DHT22;5177;50.068;8.156;2023-05-09T10:30:58;19.50;99.90
10263;DHT22;5177;50.068;8.156;2023-05-09T10:33:29;19.70;99.90
10263;DHT22;5177;50.068;8.156;2023-05-09T10:35:55;19.80;99.90
10263;DHT22;5177;50.068;8.156;2023-05-09T10:38:22;20.10;99.90
10263;DHT22;5177;50.068;8.156;2023-05-09T10:40:49;20.40;99.90
10263;DHT22;5177;50.068;8.156;2023-05-09T10:43:14;20.40;99.90
10263;DHT22;5177;50.068;8.156;2023-05-09T10:45:40;20.50;99.90
10263;DHT22;5177;50.068;8.156;2023-05-09T10:48:06;20.40;99.90
10263;DHT22;5177;50.068;8.156;2023-05-09T10:50:33;20.40;99.90
10263;DHT22;5177;50.068;8.156;2023-05-09T10:55:35;20.20;99.90
10263;DHT22;5177;50.068;8.156;2023-05-09T10:58:06;20.20;99.90
10263;DHT22;5177;50.068;8.156;2023-05-09T11:00:41;20.20;99.90
10263;DHT22;5177;50.068;8.156;2023-05-09T11:03:07;20.10;99.90
10263;DHT22;5177;50.068;8.156;2023-05-09T11:05:39;20.10;99.90
10263;DHT22;5177;50.068;8.156;2023-05-09T11:08:20;20.20;99.90
10263;DHT22;5177;50.068;8.156;2023-05-09T11:10:46;20.40;99.90
10263;DHT22;5177;50.068;8.156;2023-05-09T11:13:12;20.60;99.90
10263;DHT22;5177;50.068;8.156;2023-05-09T11:16:02;20.60;99.90
10263;DHT22;5177;50.068;8.156;2023-05-09T11:18:28;20.50;99.90
10263;DHT22;5177;50.068;8.156;2023-05-09T11:20:54;20.30;99.90
10263;DHT22;5177;50.068;8.156;2023-05-09T11:23:26;20.10;99.90
10263;DHT22;5177;50.068;8.156;2023-05-09T11:25:52;19.80;99.90
10263;DHT22;5177;50.068;8.156;2023-05-09T11:28:31;19.80;99.90
10263;DHT22;5177;50.068;8.156;2023-05-09T11:31:15;20.10;99.90
10263;DHT22;5177;50.068;8.156;2023-05-09T11:33:42;20.30;99.90
10263;DHT22;5177;50.068;8.156;2023-05-09T11:36:16;20.60;99.90
10263;DHT22;5177;50.068;8.156;2023-05-09T11:38:43;21.00;99.90
10263;DHT22;5177;50.068;8.156;2023-05-09T11:41:08;21.30;99.90
10263;DHT22;5177;50.068;8.156;2023-05-09T11:43:37;21.70;99.90
10263;DHT22;5177;50.068;8.156;2023-05-09T11:46:03;21.90;99.90
10263;DHT22;5177;50.068;8.156;2023-05-09T11:48:29;22.00;99.90
10263;DHT22;5177;50.068;8.156;2023-05-09T11:50:55;22.00;99.90
10263;DHT22;5177;50.068;8.156;2023-05-09T11:53:20;22.10;99.90
10263;DHT22;5177;50.068;8.156;2023-05-09T11:55:46;21.90;99.90
10263;DHT22;5177;50.068;8.156;2023-05-09T11:58:12;21.90;99.90
10263;DHT22;5177;50.068;8.156;2023-05-09T12:00:44;22.00;99.90
10263;DHT22;5177;50.068;8.156;2023-05-09T12:03:10;22.00;99.90
10263;DHT22;5177;50.068;8.156;2023-05-09T12:05:36;21.90;99.90
10263;DHT22;5177;50.068;8.156;2023-05-09T12:08:04;21.80;99.90
10263;DHT22;5177;50.068;8.156;2023-05-09T12:10:30;21.80;99.90
10263;DHT22;5177;50.068;8.156;2023-05-09T12:12:56;21.60;99.90
10263;DHT22;5177;50.068;8.156;2023-05-09T12:15:21;21.70;99.90
10263;DHT22;5177;50.068;8.156;2023-05-09T12:17:47;21.90;99.90
10263;DHT22;5177;50.068;8.156;2023-05-09T12:20:24;21.90;99.90
10263;DHT22;5177;50.068;8.156;2023-05-09T12:22:53;22.00;99.90
10263;DHT22;5177;50.068;8.156;2023-05-09T12:25:18;22.00;99.90
10263;DHT22;5177;50.068;8.156;2023-05-09T12:27:44;22.00;99.90
10263;DHT22;5177;50.068;8.156;2023-05-09T12:30:10;22.10;99.90
10263;DHT22;5177;50.068;8.156;2023-05-09T12:32:38;22.10;99.90
10263;DHT22;5177;50.068;8.156;2023-05-09T12:35:05;22.10;99.90
10263;DHT22;5177;50.068;8.156;2023-05-09T12:37:31;22.20;99.90
10263;DHT22;5177;50.068;8.156;2023-05-09T12:40:00;22.20;99.90
10263;DHT22;5177;50.068;8.156;2023-05-09T12:42:27;21.90;99.90
10263;DHT22;5177;50.068;8.156;2023-05-09T12:44:53;21.90;99.90
10263;DHT22;5177;50.068;8.156;2023-05-09T12:47:18;21.80;99.90
10263;DHT22;5177;50.068;8.156;2023-05-09T12:49:47;21.70;99.90
10263;DHT22;5177;50.068;8.156;2023-05-09T12:52:16;21.70;99.90
10263;DHT22;5177;50.068;8.156;2023-05-09T12:54:44;21.60;99.90
10263;DHT22;5177;50.068;8.156;2023-05-09T12:57:18;21.60;99.90
10263;DHT22;5177;50.068;8.156;2023-05-09T12:59:44;21.50;99.90
10263;DHT22;5177;50.068;8.156;2023-05-09T13:02:09;21.50;99.90
10263;DHT22;5177;50.068;8.156;2023-05-09T13:04:35;21.40;99.90
10263;DHT22;5177;50.068;8.156;2023-05-09T13:07:06;21.30;99.90
10263;DHT22;5177;50.068;8.156;2023-05-09T13:09:32;21.20;99.90
10263;DHT22;5177;50.068;8.156;2023-05-09T13:11:58;21.10;99.90
10263;DHT22;5177;50.068;8.156;2023-05-09T13:14:25;21.00;99.90
10263;DHT22;5177;50.068;8.156;2023-05-09T13:16:51;20.90;99.90
10263;DHT22;5177;50.068;8.156;2023-05-09T13:19:16;21.10;99.90
10263;DHT22;5177;50.068;8.156;2023-05-09T13:21:42;21.10;99.90
10263;DHT22;5177;50.068;8.156;2023-05-09T13:24:07;21.20;99.90
10263;DHT22;5177;50.068;8.156;2023-05-09T13:26:33;21.10;99.90
10263;DHT22;5177;50.068;8.156;2023-05-09T13:28:58;21.10;99.90
10263;DHT22;5177;50.068;8.156;2023-05-09T13:31:24;21.00;99.90
10263;DHT22;5177;50.068;8.156;2023-05-09T13:33:50;20.90;99.90
10263;DHT22;5177;50.068;8.156;2023-05-09T13:36:15;20.80;99.90
10263;DHT22;5177;50.068;8.156;2023-05-09T13:38:41;20.70;99.90
10263;DHT22;5177;50.068;8.156;2023-05-09T13:41:07;20.60;99.90
10263;DHT22;5177;50.068;8.156;2023-05-09T13:43:33;20.60;99.90
10263;DHT22;5177;50.068;8.156;2023-05-09T13:45:58;20.60;99.90
10263;DHT22;5177;50.068;8.156;2023-05-09T13:48:24;20.60;99.90
10263;DHT22;5177;50.068;8.156;2023-05-09T13:50:49;20.60;99.90
10263;DHT22;5177;50.068;8.156;2023-05-09T13:53:15;20.60;99.90
10263;DHT22;5177;50.068;8.156;2023-05-09T13:55:40;20.70;99.90
10263;DHT22;5177;50.068;8.156;2023-05-09T13:58:07;20.60;99.90
10263;DHT22;5177;50.068;8.156;2023-05-09T14:00:32;20.50;99.90
10263;DHT22;5177;50.068;8.156;2023-05-09T14:02:58;20.60;99.90
10263;DHT22;5177;50.068;8.156;2023-05-09T14:05:23;20.60;99.90
10263;DHT22;5177;50.068;8.156;2023-05-09T14:07:49;20.60;99.90
10263;DHT22;5177;50.068;8.156;2023-05-09T14:10:14;20.70;99.90
10263;DHT22;5177;50.068;8.156;2023-05-09T14:12:41;20.60;99.90
10263;DHT22;5177;50.068;8.156;2023-05-09T14:15:08;20.60;99.90
10263;DHT22;5177;50.068;8.156;2023-05-09T14:17:34;20.50;99.90
10263;DHT22;5177;50.068;8.156;2023-05-09T14:19:59;20.50;99.90
10263;DHT22;5177;50.068;8.156;2023-05-09T14:22:25;20.40;99.90
10263;DHT22;5177;50.068;8.156;2023-05-09T14:24:51;20.30;99.90
10263;DHT22;5177;50.068;8.156;2023-05-09T14:27:16;20.20;99.90
10263;DHT22;5177;50.068;8.156;2023-05-09T14:29:42;20.20;99.90
10263;DHT22;5177;50.068;8.156;2023-05-09T14:32:08;20.20;99.90
10263;DHT22;5177;50.068;8.156;2023-05-09T14:34:39;20.20;99.90
10263;DHT22;5177;50.068;8.156;2023-05-09T14:37:05;20.20;99.90
10263;DHT22;5177;50.068;8.156;2023-05-09T14:39:40;20.10;99.90
10263;DHT22;5177;50.068;8.156;2023-05-09T14:42:07;20.10;99.90
10263;DHT22;5177;50.068;8.156;2023-05-09T14:44:35;20.10;99.90
10263;DHT22;5177;50.068;8.156;2023-05-09T14:47:01;20.00;99.90
10263;DHT22;5177;50.068;8.156;2023-05-09T14:49:26;20.00;99.90
10263;DHT22;5177;50.068;8.156;2023-05-09T14:51:52;19.90;99.90
10263;DHT22;5177;50.068;8.156;2023-05-09T14:54:17;19.90;99.90
10263;DHT22;5177;50.068;8.156;2023-05-09T14:56:43;19.80;99.90
10263;DHT22;5177;50.068;8.156;2023-05-09T14:59:09;19.80;99.90
10263;DHT22;5177;50.068;8.156;2023-05-09T15:01:34;19.80;99.90
10263;DHT22;5177;50.068;8.156;2023-05-09T15:04:00;19.80;99.90
10263;DHT22;5177;50.068;8.156;2023-05-09T15:06:25;19.80;99.90
10263;DHT22;5177;50.068;8.156;2023-05-09T15:08:51;19.80;99.90
10263;DHT22;5177;50.068;8.156;2023-05-09T15:11:16;19.70;99.90
10263;DHT22;5177;50.068;8.156;2023-05-09T15:13:42;19.70;99.90
10263;DHT22;5177;50.068;8.156;2023-05-09T15:16:07;19.70;99.90
10263;DHT22;5177;50.068;8.156;2023-05-09T15:18:33;19.70;99.90
10263;DHT22;5177;50.068;8.156;2023-05-09T15:20:59;19.60;99.90
10263;DHT22;5177;50.068;8.156;2023-05-09T15:23:24;19.60;99.90
10263;DHT22;5177;50.068;8.156;2023-05-09T15:25:50;19.70;99.90
10263;DHT22;5177;50.068;8.156;2023-05-09T15:28:15;19.70;99.90
10263;DHT22;5177;50.068;8.156;2023-05-09T15:30:41;19.60;99.90
10263;DHT22;5177;50.068;8.156;2023-05-09T15:33:06;19.70;99.90
10263;DHT22;5177;50.068;8.156;2023-05-09T15:35:32;19.80;99.90
10263;DHT22;5177;50.068;8.156;2023-05-09T15:37:58;19.80;99.90
10263;DHT22;5177;50.068;8.156;2023-05-09T15:40:24;19.90;99.90
10263;DHT22;5177;50.068;8.156;2023-05-09T15:42:49;19.80;99.90
10263;DHT22;5177;50.068;8.156;2023-05-09T15:45:15;19.80;99.90
10263;DHT22;5177;50.068;8.156;2023-05-09T15:47:41;19.80;99.90
10263;DHT22;5177;50.068;8.156;2023-05-09T15:50:06;19.80;99.90
10263;DHT22;5177;50.068;8.156;2023-05-09T15:52:32;19.80;99.90
10263;DHT22;5177;50.068;8.156;2023-05-09T15:54:58;19.80;99.90